createdAt,value
2023-01-02T00:00:19.085Z,18.75
2023-01-02T00:03:10.914Z,22.30
2023-01-02T00:05:41.308Z,17.30
2023-01-02T00:08:09.771Z,18.17
2023-01-02T00:10:38.527Z,21.83
2023-01-02T00:13:07.056Z,21.60
2023-01-02T00:15:36.043Z,25.58
2023-01-02T00:18:06.423Z,21.67
2023-01-02T00:20:36.483Z,19.58
2023-01-02T00:23:04.929Z,19.42
2023-01-02T00:25:35.160Z,22.63
2023-01-02T00:28:03.937Z,19.92
2023-01-02T00:30:38.241Z,17.00
2023-01-02T00:33:07.229Z,21.50
2023-01-02T00:35:38.824Z,20.45
2023-01-02T00:38:07.344Z,14.65
2023-01-02T00:40:36.455Z,19.83
2023-01-02T00:43:05.771Z,17.45
2023-01-02T00:45:34.541Z,19.67
2023-01-02T00:48:02.957Z,20.27
2023-01-02T00:50:31.767Z,21.38
2023-01-02T00:53:01.584Z,21.17
2023-01-02T00:55:30.627Z,21.33
2023-01-02T00:57:59.303Z,19.80
2023-01-02T01:00:28.985Z,18.40
2023-01-02T01:02:58.117Z,20.67
2023-01-02T01:05:27.771Z,19.75
2023-01-02T01:07:57.704Z,16.92
2023-01-02T01:10:28.636Z,22.33
2023-01-02T01:12:57.092Z,18.95
2023-01-02T01:15:25.761Z,20.33
2023-01-02T01:17:54.263Z,20.80
2023-01-02T01:20:23.115Z,19.70
2023-01-02T01:22:51.799Z,23.65
2023-01-02T01:25:20.623Z,21.77
2023-01-02T01:27:53.270Z,20.95
2023-01-02T01:30:22.918Z,20.05
2023-01-02T01:32:51.378Z,21.70
2023-01-02T01:35:20.141Z,20.83
2023-01-02T01:37:48.702Z,25.45
2023-01-02T01:40:17.694Z,21.38
2023-01-02T01:42:50.082Z,19.98
2023-01-02T01:45:20.410Z,16.58
2023-01-02T01:47:53.595Z,20.25
2023-01-02T01:50:26.830Z,18.92
2023-01-02T01:53:00.416Z,21.25
2023-01-02T01:55:34.480Z,15.00
2023-01-02T01:58:06.785Z,16.92
2023-01-02T02:00:37.581Z,16.15
2023-01-02T02:03:10.324Z,16.67
2023-01-02T02:05:40.463Z,15.63
2023-01-02T02:08:16.751Z,18.33
2023-01-02T02:10:46.706Z,16.95
2023-01-02T02:13:16.368Z,19.17
2023-01-02T02:15:55.008Z,18.25
2023-01-02T02:18:37.679Z,19.30
2023-01-02T02:21:23.229Z,20.83
2023-01-02T02:24:14.484Z,15.82
2023-01-02T02:26:58.084Z,20.08
2023-01-02T02:30:02.912Z,23.88
2023-01-02T02:33:00.001Z,19.45
2023-01-02T02:35:38.836Z,16.52
2023-01-02T02:38:13.978Z,15.52
2023-01-02T02:40:51.903Z,16.92
2023-01-02T02:43:29.670Z,15.95
2023-01-02T02:46:09.063Z,18.63
2023-01-02T02:48:46.875Z,18.80
2023-01-02T02:51:19.836Z,21.27
2023-01-02T02:53:55.360Z,14.98
2023-01-02T02:56:26.126Z,15.13
2023-01-02T02:58:55.672Z,18.98
2023-01-02T03:01:30.403Z,17.42
2023-01-02T03:03:59.828Z,16.77
2023-01-02T03:06:58.832Z,18.17
2023-01-02T03:09:38.991Z,16.00
2023-01-02T03:12:18.195Z,17.85
2023-01-02T03:14:57.536Z,21.70
2023-01-02T03:17:34.697Z,16.05
2023-01-02T03:20:09.826Z,21.13
2023-01-02T03:22:41.385Z,18.67
2023-01-02T03:25:12.410Z,20.33
2023-01-02T03:27:44.765Z,22.10
2023-01-02T03:30:17.804Z,15.38
2023-01-02T03:32:52.022Z,21.88
2023-01-02T03:35:33.633Z,23.50
2023-01-02T03:38:06.700Z,16.67
2023-01-02T03:40:40.363Z,20.45
2023-01-02T03:43:15.765Z,17.50
2023-01-02T03:45:48.209Z,15.07
2023-01-02T03:48:25.744Z,16.52
2023-01-02T03:50:57.640Z,19.58
2023-01-02T03:53:27.323Z,21.77
2023-01-02T03:56:07.583Z,12.80
2023-01-02T03:58:44.246Z,19.13
2023-01-02T04:01:22.344Z,15.95
2023-01-02T04:03:57.602Z,18.95
2023-01-02T04:06:31.726Z,14.55
2023-01-02T04:09:06.854Z,15.60
2023-01-02T04:11:38.719Z,20.73
2023-01-02T04:14:13.447Z,18.25
2023-01-02T04:16:44.682Z,16.10
2023-01-02T04:19:18.644Z,17.95
2023-01-02T04:21:51.127Z,19.53
2023-01-02T04:24:25.566Z,19.65
2023-01-02T04:26:59.298Z,21.23
2023-01-02T04:29:27.881Z,20.83
2023-01-02T04:32:02.400Z,17.52
2023-01-02T04:34:35.529Z,18.55
2023-01-02T04:37:04.526Z,19.13
2023-01-02T04:39:35.876Z,21.48
2023-01-02T04:42:04.645Z,15.38
2023-01-02T04:44:33.144Z,18.87
2023-01-02T04:47:03.085Z,16.08
2023-01-02T04:49:33.232Z,18.98
2023-01-02T04:52:02.325Z,22.17
2023-01-02T04:54:30.760Z,19.27
2023-01-02T04:56:59.731Z,19.27
2023-01-02T04:59:28.198Z,18.67
2023-01-02T05:01:57.175Z,17.73
2023-01-02T05:04:25.702Z,16.57
2023-01-02T05:06:55.765Z,19.95
2023-01-02T05:09:24.298Z,15.95
2023-01-02T05:11:53.013Z,24.98
2023-01-02T05:14:21.547Z,22.10
2023-01-02T05:16:50.402Z,18.92
2023-01-02T05:19:18.898Z,21.33
2023-01-02T05:22:05.423Z,18.58
2023-01-02T05:24:35.318Z,21.48
2023-01-02T05:27:05.789Z,16.85
2023-01-02T05:29:34.288Z,19.83
2023-01-02T05:32:03.061Z,18.60
2023-01-02T05:34:31.527Z,20.20
2023-01-02T05:37:00.276Z,19.07
2023-01-02T05:39:28.831Z,19.50
2023-01-02T05:41:58.920Z,17.77
2023-01-02T05:44:27.422Z,20.67
2023-01-02T05:46:56.148Z,18.87
2023-01-02T05:49:24.684Z,17.43
2023-01-02T05:51:53.410Z,19.20
2023-01-02T05:54:22.273Z,16.87
2023-01-02T05:56:51.041Z,19.17
2023-01-02T05:59:21.022Z,21.37
2023-01-02T06:01:49.963Z,16.15
2023-01-02T06:04:19.943Z,21.03
2023-01-02T06:06:49.605Z,20.13
2023-01-02T06:09:18.949Z,18.20
2023-01-02T06:11:47.748Z,17.27
2023-01-02T06:14:16.165Z,19.30
2023-01-02T06:16:46.323Z,17.77
2023-01-02T06:19:14.815Z,18.27
2023-01-02T06:21:43.646Z,18.43
2023-01-02T06:24:12.306Z,17.60
2023-01-02T06:26:41.180Z,20.83
2023-01-02T06:29:10.894Z,16.40
2023-01-02T06:31:41.128Z,16.60
2023-01-02T06:34:12.469Z,19.10
2023-01-02T06:36:41.311Z,14.30
2023-01-02T06:39:09.780Z,13.27
2023-01-02T06:41:38.867Z,16.70
2023-01-02T06:44:07.446Z,20.50
2023-01-02T06:46:36.151Z,17.08
2023-01-02T06:49:04.588Z,17.10
2023-01-02T06:51:34.676Z,19.85
2023-01-02T06:54:03.113Z,16.50
2023-01-02T06:56:31.785Z,15.35
2023-01-02T06:59:00.372Z,15.68
2023-01-02T07:01:30.031Z,16.50
2023-01-02T07:03:58.653Z,15.57
2023-01-02T07:06:27.925Z,18.17
2023-01-02T07:08:57.731Z,12.10
2023-01-02T07:11:26.534Z,13.77
2023-01-02T07:13:55.881Z,18.73
2023-01-02T07:16:25.584Z,19.02
2023-01-02T07:18:54.716Z,17.30
2023-01-02T07:21:23.834Z,14.88
2023-01-02T07:23:52.391Z,16.90
2023-01-02T07:26:23.462Z,13.83
2023-01-02T07:28:51.966Z,19.35
2023-01-02T07:31:22.421Z,16.45
2023-01-02T07:33:51.179Z,19.67
2023-01-02T07:36:22.511Z,13.57
2023-01-02T07:38:52.004Z,10.60
2023-01-02T07:41:23.789Z,14.63
2023-01-02T07:43:54.479Z,15.30
2023-01-02T07:46:24.888Z,12.30
2023-01-02T07:48:53.515Z,15.57
2023-01-02T07:51:27.024Z,16.27
2023-01-02T07:53:57.657Z,15.98
2023-01-02T07:56:28.134Z,15.70
2023-01-02T07:58:56.594Z,13.63
2023-01-02T08:01:25.728Z,13.98
2023-01-02T08:03:54.330Z,20.33
2023-01-02T08:06:23.229Z,14.07
2023-01-02T08:08:51.924Z,16.52
2023-01-02T08:11:22.927Z,15.68
2023-01-02T08:13:52.760Z,15.88
2023-01-02T08:16:22.949Z,17.27
2023-01-02T08:18:55.468Z,13.20
2023-01-02T08:21:24.986Z,16.08
2023-01-02T08:23:54.147Z,14.57
2023-01-02T08:26:23.339Z,11.75
2023-01-02T08:28:53.273Z,16.40
2023-01-02T08:31:23.315Z,9.23
2023-01-02T08:33:51.895Z,13.15
2023-01-02T08:36:20.738Z,14.80
2023-01-02T08:38:49.245Z,13.60
2023-01-02T08:41:32.558Z,13.40
2023-01-02T08:44:03.264Z,17.42
2023-01-02T08:46:38.399Z,15.00
2023-01-02T08:49:10.839Z,13.48
2023-01-02T08:51:39.623Z,12.55
2023-01-02T08:54:08.371Z,11.50
2023-01-02T08:56:37.744Z,16.77
2023-01-02T08:59:09.705Z,12.35
2023-01-02T09:01:40.075Z,13.15
2023-01-02T09:04:12.745Z,13.30
2023-01-02T09:06:43.802Z,19.27
2023-01-02T09:09:14.635Z,16.25
2023-01-02T09:11:47.099Z,12.65
2023-01-02T09:14:17.808Z,15.32
2023-01-02T09:16:46.934Z,14.82
2023-01-02T09:19:15.388Z,16.70
2023-01-02T09:21:45.102Z,14.95
2023-01-02T09:24:13.759Z,12.18
2023-01-02T09:26:42.976Z,14.15
2023-01-02T09:29:11.999Z,13.65
2023-01-02T09:31:43.179Z,11.65
2023-01-02T09:34:11.888Z,12.80
2023-01-02T09:36:41.383Z,13.20
2023-01-02T09:39:10.185Z,11.13
2023-01-02T09:41:41.775Z,11.05
2023-01-02T09:44:16.488Z,11.60
2023-01-02T09:46:51.907Z,10.35
2023-01-02T09:49:22.849Z,8.63
2023-01-02T09:51:51.964Z,10.23
2023-01-02T09:54:25.328Z,10.75
2023-01-02T09:57:05.899Z,8.98
2023-01-02T09:59:37.545Z,12.77
2023-01-02T10:02:23.809Z,8.98
2023-01-02T10:05:15.384Z,10.00
2023-01-02T10:07:50.099Z,10.48
2023-01-02T10:10:27.693Z,8.13
2023-01-02T10:13:03.334Z,10.55
2023-01-02T10:15:33.025Z,12.98
2023-01-02T10:18:15.755Z,9.02
2023-01-02T10:20:49.938Z,12.13
2023-01-02T10:23:25.216Z,8.90
2023-01-02T10:25:58.915Z,8.80
2023-01-02T10:28:38.538Z,10.13
2023-01-02T10:31:11.835Z,9.80
2023-01-02T10:33:47.179Z,13.57
2023-01-02T10:36:24.784Z,10.68
2023-01-02T10:38:54.477Z,11.35
2023-01-02T10:41:23.078Z,11.63
2023-01-02T10:43:56.837Z,10.38
2023-01-02T10:46:28.620Z,11.40
2023-01-02T10:48:59.255Z,8.95
2023-01-02T10:51:28.101Z,10.00
2023-01-02T10:54:05.703Z,8.05
2023-01-02T10:56:36.663Z,10.63
2023-01-02T10:59:17.548Z,7.95
2023-01-02T11:01:51.624Z,8.25
2023-01-02T11:04:25.444Z,8.02
2023-01-02T11:06:58.143Z,9.15
2023-01-02T11:09:28.568Z,9.50
2023-01-02T11:11:59.578Z,11.32
2023-01-02T11:14:33.420Z,11.95
2023-01-02T11:17:07.764Z,9.32
2023-01-02T11:19:43.967Z,11.38
2023-01-02T11:22:14.504Z,6.70
2023-01-02T11:25:00.401Z,9.43
2023-01-02T11:27:32.759Z,10.30
2023-01-02T11:30:03.223Z,9.35
2023-01-02T11:32:40.226Z,8.40
2023-01-02T11:35:35.134Z,8.52
2023-01-02T11:38:04.304Z,11.45
2023-01-02T11:40:33.984Z,8.90
2023-01-02T11:43:25.745Z,10.38
2023-01-02T11:45:55.372Z,11.40
2023-01-02T11:48:25.884Z,7.30
2023-01-02T11:50:56.191Z,9.23
2023-01-02T11:53:31.206Z,7.90
2023-01-02T11:56:11.080Z,9.73
2023-01-02T11:58:49.072Z,9.30
2023-01-02T12:01:21.801Z,9.57
2023-01-02T12:03:50.531Z,8.20
2023-01-02T12:06:25.155Z,8.77
2023-01-02T12:09:05.295Z,7.45
2023-01-02T12:11:51.520Z,10.35
2023-01-02T12:14:22.959Z,8.57
2023-01-02T12:16:54.870Z,11.13
2023-01-02T12:19:47.428Z,8.75
2023-01-02T12:22:41.736Z,8.05
2023-01-02T12:25:41.857Z,11.18
2023-01-02T12:28:34.237Z,10.20
2023-01-02T12:31:30.637Z,7.65
2023-01-02T12:34:09.281Z,9.88
2023-01-02T12:36:53.187Z,9.10
2023-01-02T12:39:51.775Z,10.85
2023-01-02T12:42:34.499Z,8.57
2023-01-02T12:45:03.733Z,8.60
2023-01-02T12:47:50.303Z,10.75
2023-01-02T12:50:48.412Z,9.27
2023-01-02T12:53:29.841Z,10.43
2023-01-02T12:56:10.032Z,10.95
2023-01-02T12:58:56.328Z,9.85
2023-01-02T13:01:32.715Z,12.02
2023-01-02T13:04:06.740Z,12.55
2023-01-02T13:06:47.084Z,11.35
2023-01-02T13:09:23.673Z,11.73
2023-01-02T13:12:10.063Z,14.43
2023-01-02T13:14:42.797Z,10.75
2023-01-02T13:17:32.289Z,11.07
2023-01-02T13:20:10.702Z,12.57
2023-01-02T13:22:47.752Z,12.55
2023-01-02T13:25:21.807Z,14.10
2023-01-02T13:28:00.476Z,12.63
2023-01-02T13:30:40.207Z,9.45
2023-01-02T13:33:30.416Z,11.57
2023-01-02T13:36:02.403Z,12.30
2023-01-02T13:38:36.316Z,11.68
2023-01-02T13:41:05.029Z,9.45
2023-01-02T13:43:35.630Z,12.15
2023-01-02T13:46:04.358Z,13.35
2023-01-02T13:48:39.115Z,9.65
2023-01-02T13:51:15.065Z,12.63
2023-01-02T13:53:46.307Z,11.45
2023-01-02T13:56:17.277Z,9.70
2023-01-02T13:58:52.514Z,13.25
2023-01-02T14:01:52.597Z,9.98
2023-01-02T14:04:40.239Z,9.63
2023-01-02T14:07:56.679Z,12.70
2023-01-02T14:10:36.210Z,14.57
2023-01-02T14:13:12.061Z,16.25
2023-01-02T14:16:23.193Z,14.30
2023-01-02T14:19:07.396Z,17.08
2023-01-02T14:21:38.074Z,14.25
2023-01-02T14:24:17.928Z,17.13
2023-01-02T14:26:53.718Z,15.18
2023-01-02T14:29:23.836Z,14.30
2023-01-02T14:32:02.804Z,17.65
2023-01-02T14:34:31.831Z,12.43
2023-01-02T14:37:03.272Z,14.98
2023-01-02T14:39:36.836Z,12.95
2023-01-02T14:42:47.028Z,12.85
2023-01-02T14:45:20.331Z,14.50
2023-01-02T14:47:53.731Z,12.52
2023-01-02T14:50:26.597Z,15.02
2023-01-02T14:53:04.931Z,14.70
2023-01-02T14:55:41.931Z,14.00
2023-01-02T14:58:20.622Z,14.70
2023-01-02T15:00:50.557Z,14.77
2023-01-02T15:03:29.584Z,12.73
2023-01-02T15:06:01.161Z,14.45
2023-01-02T15:08:37.797Z,21.90
2023-01-02T15:11:44.004Z,15.15
2023-01-02T15:14:22.071Z,15.43
2023-01-02T15:16:55.905Z,14.90
2023-01-02T15:19:29.135Z,18.15
2023-01-02T15:21:57.982Z,20.00
2023-01-02T15:24:30.100Z,19.98
2023-01-02T15:27:13.991Z,18.38
2023-01-02T15:29:48.232Z,19.73
2023-01-02T15:32:21.030Z,19.38
2023-01-02T15:34:51.983Z,17.10
2023-01-02T15:37:23.079Z,16.30
2023-01-02T15:39:53.700Z,17.42
2023-01-02T15:42:43.313Z,15.90
2023-01-02T15:45:15.318Z,19.88
2023-01-02T15:47:47.548Z,14.68
2023-01-02T15:50:20.916Z,16.20
2023-01-02T15:52:56.215Z,14.25
2023-01-02T15:55:25.599Z,14.75
2023-01-02T15:57:55.591Z,17.25
2023-01-02T16:00:36.626Z,14.45
2023-01-02T16:03:05.559Z,18.15
2023-01-02T16:05:49.616Z,15.63
2023-01-02T16:08:21.279Z,16.42
2023-01-02T16:11:01.016Z,17.67
2023-01-02T16:13:49.527Z,14.35
2023-01-02T16:16:20.110Z,13.73
2023-01-02T16:18:52.709Z,14.95
2023-01-02T16:21:25.176Z,14.20
2023-01-02T16:23:58.563Z,12.73
2023-01-02T16:26:33.994Z,14.00
2023-01-02T16:29:02.563Z,12.27
2023-01-02T16:31:50.821Z,14.57
2023-01-02T16:34:30.755Z,12.85
2023-01-02T16:37:34.765Z,13.02
2023-01-02T16:41:00.834Z,17.05
2023-01-02T16:43:30.526Z,13.25
2023-01-02T16:46:00.378Z,13.45
2023-01-02T16:48:30.980Z,15.68
2023-01-02T16:51:00.526Z,16.20
2023-01-02T16:53:32.842Z,16.90
2023-01-02T16:56:02.162Z,12.25
2023-01-02T16:58:30.946Z,14.05
2023-01-02T17:00:59.622Z,15.95
2023-01-02T17:03:29.102Z,21.13
2023-01-02T17:06:02.152Z,11.63
2023-01-02T17:08:33.367Z,11.52
2023-01-02T17:11:02.847Z,13.07
2023-01-02T17:13:32.423Z,16.00
2023-01-02T17:16:01.101Z,14.07
2023-01-02T17:18:30.098Z,13.02
2023-01-02T17:20:58.700Z,13.40
2023-01-02T17:23:27.503Z,13.23
2023-01-02T17:25:57.475Z,13.93
2023-01-02T17:28:27.408Z,19.05
2023-01-02T17:30:56.343Z,15.18
2023-01-02T17:33:25.358Z,18.13
2023-01-02T17:35:53.856Z,18.13
2023-01-02T17:38:22.670Z,19.13
2023-01-02T17:40:56.591Z,18.88
2023-01-02T17:43:27.318Z,19.30
2023-01-02T17:45:56.069Z,17.92
2023-01-02T17:48:25.534Z,21.25
2023-01-02T17:50:54.850Z,17.90
2023-01-02T17:53:23.656Z,16.52
2023-01-02T17:56:21.129Z,17.40
2023-01-02T17:58:44.548Z,16.45
2023-01-02T18:01:17.719Z,14.77
2023-01-02T18:03:47.357Z,18.40
2023-01-02T18:06:16.087Z,17.92
2023-01-02T18:08:45.593Z,15.48
2023-01-02T18:11:15.680Z,17.25
2023-01-02T18:13:48.269Z,16.55
2023-01-02T18:16:20.101Z,17.95
2023-01-02T18:18:50.803Z,12.95
2023-01-02T18:21:22.046Z,14.00
2023-01-02T18:23:55.738Z,17.20
2023-01-02T18:26:26.308Z,13.27
2023-01-02T18:29:02.847Z,15.88
2023-01-02T18:31:41.459Z,15.32
2023-01-02T18:34:45.908Z,15.32
2023-01-02T18:37:15.919Z,16.60
2023-01-02T18:39:44.774Z,15.55
2023-01-02T18:42:15.065Z,16.77
2023-01-02T18:44:45.675Z,16.38
2023-01-02T18:47:25.921Z,17.80
2023-01-02T18:49:55.818Z,14.50
2023-01-02T18:52:27.102Z,18.63
2023-01-02T18:55:00.866Z,11.18
2023-01-02T18:57:37.397Z,17.50
2023-01-02T19:00:21.786Z,15.88
2023-01-02T19:02:57.341Z,14.60
2023-01-02T19:05:28.923Z,14.07
2023-01-02T19:08:07.925Z,20.80
2023-01-02T19:10:39.149Z,16.75
2023-01-02T19:13:16.517Z,14.38
2023-01-02T19:15:49.590Z,20.13
2023-01-02T19:18:35.610Z,14.88
2023-01-02T19:21:17.959Z,16.08
2023-01-02T19:23:52.479Z,16.83
2023-01-02T19:26:26.435Z,15.25
2023-01-02T19:29:00.368Z,21.50
2023-01-02T19:31:40.717Z,20.02
2023-01-02T19:34:36.881Z,18.50
2023-01-02T19:37:23.725Z,16.52
2023-01-02T19:39:53.736Z,14.40
2023-01-02T19:42:24.466Z,11.70
2023-01-02T19:44:55.660Z,15.32
2023-01-02T19:47:28.963Z,17.48
2023-01-02T19:49:58.138Z,15.82
2023-01-02T19:52:28.685Z,18.35
2023-01-02T19:54:58.963Z,17.38
2023-01-02T19:57:27.779Z,17.10
2023-01-02T19:59:56.995Z,19.23
2023-01-02T20:02:28.497Z,19.55
2023-01-02T20:04:57.455Z,17.33
2023-01-02T20:07:27.801Z,15.05
2023-01-02T20:09:56.649Z,15.32
2023-01-02T20:12:34.344Z,17.75
2023-01-02T20:15:08.507Z,16.70
2023-01-02T20:17:40.286Z,16.85
2023-01-02T20:20:11.595Z,13.45
2023-01-02T20:22:41.359Z,15.00
2023-01-02T20:25:10.208Z,16.55
2023-01-02T20:27:39.212Z,17.45
2023-01-02T20:30:10.209Z,18.45
2023-01-02T20:32:41.879Z,21.67
2023-01-02T20:35:13.683Z,17.25
2023-01-02T20:37:42.758Z,17.92
2023-01-02T20:40:13.262Z,17.55
2023-01-02T20:42:44.609Z,18.77
2023-01-02T20:45:17.323Z,16.17
2023-01-02T20:47:47.537Z,15.23
2023-01-02T20:50:17.913Z,15.68
2023-01-02T20:52:48.377Z,16.80
2023-01-02T20:55:20.242Z,15.93
2023-01-02T20:57:51.685Z,13.75
2023-01-02T21:00:21.968Z,18.90
2023-01-02T21:02:52.533Z,14.48
2023-01-02T21:05:21.811Z,18.05
2023-01-02T21:07:50.946Z,19.52
2023-01-02T21:10:20.054Z,27.05
2023-01-02T21:13:10.434Z,14.57
2023-01-02T21:15:45.220Z,22.00
2023-01-02T21:18:18.722Z,22.60
2023-01-02T21:20:51.828Z,20.27
2023-01-02T21:23:22.343Z,20.42
2023-01-02T21:25:51.615Z,16.30
2023-01-02T21:28:22.862Z,13.60
2023-01-02T21:30:54.885Z,19.15
2023-01-02T21:33:30.370Z,21.35
2023-01-02T21:36:00.774Z,21.42
2023-01-02T21:38:30.468Z,19.70
2023-01-02T21:41:21.604Z,18.92
2023-01-02T21:43:50.996Z,16.77
2023-01-02T21:46:19.787Z,20.27
2023-01-02T21:48:50.352Z,22.20
2023-01-02T21:51:19.118Z,15.07
2023-01-02T21:53:47.920Z,21.55
2023-01-02T21:56:17.847Z,18.85
2023-01-02T21:58:46.847Z,11.15
2023-01-02T22:01:16.484Z,15.38
2023-01-02T22:03:45.592Z,17.50
2023-01-02T22:06:15.609Z,15.25
2023-01-02T22:08:46.572Z,17.95
2023-01-02T22:11:32.370Z,11.98
2023-01-02T22:14:01.467Z,14.18
2023-01-02T22:16:30.023Z,14.10
2023-01-02T22:18:59.103Z,14.98
2023-01-02T22:21:31.451Z,17.40
2023-01-02T22:24:01.216Z,11.73
2023-01-02T22:26:29.999Z,14.73
2023-01-02T22:28:59.629Z,11.63
2023-01-02T22:31:28.305Z,11.25
2023-01-02T22:33:58.471Z,13.07
2023-01-02T22:36:31.355Z,9.60
2023-01-02T22:39:27.115Z,10.50
2023-01-02T22:42:48.838Z,14.38
2023-01-02T22:45:07.002Z,11.52
2023-01-02T22:47:38.526Z,13.48
2023-01-02T22:50:12.125Z,16.02
2023-01-02T22:52:42.695Z,15.18
2023-01-02T22:55:17.258Z,9.70
2023-01-02T22:57:51.124Z,7.68
2023-01-02T23:00:23.333Z,13.63
2023-01-02T23:02:52.405Z,11.40
2023-01-02T23:05:22.398Z,11.07
2023-01-02T23:07:52.476Z,12.20
2023-01-02T23:10:21.524Z,14.32
2023-01-02T23:12:50.031Z,6.57
2023-01-02T23:15:18.835Z,11.02
2023-01-02T23:18:04.763Z,13.30
2023-01-02T23:20:34.305Z,8.27
2023-01-02T23:23:04.314Z,11.13
2023-01-02T23:25:33.132Z,10.27
2023-01-02T23:28:04.716Z,7.22
2023-01-02T23:30:39.716Z,13.70
2023-01-02T23:33:08.364Z,10.20
2023-01-02T23:35:37.082Z,11.70
2023-01-02T23:38:06.926Z,11.47
2023-01-02T23:40:35.799Z,11.13
2023-01-02T23:43:04.269Z,8.43
2023-01-02T23:45:33.029Z,8.63
2023-01-02T23:48:01.525Z,11.48
2023-01-02T23:50:30.327Z,9.77
2023-01-02T23:52:58.738Z,11.50
2023-01-02T23:55:30.343Z,23.60
2023-01-02T23:57:58.946Z,8.43
